Time;durP1;ratioP1;P1;durP2;ratioP2;P2;SDS_P1;SDS_P2;PMS_P1;PMS_P2;Temp;Humidity;BMP_temperature;BMP_pressure;BME280_temperature;BME280_humidity;BME280_pressure;Samples;Min_cycle;Max_cycle;Signal;HPM_P1;HPM_P2
2023/07/01 11:16:42;;;;;;;2.45;1.73;;;;;;;29.74;39.19;100564.91;10451965;27;96977;-77
2023/07/01 11:21:46;;;;;;;2.53;1.50;;;;;;;30.13;38.82;100566.59;10414751;27;98429;-78
2023/07/01 11:26:49;;;;;;;2.35;1.77;;;;;;;30.36;38.96;100561.19;10430826;27;96825;-77
2023/07/01 11:32:00;;;;;;;2.33;1.58;;;;;;;30.75;38.22;100553.78;10373285;28;96871;-78
2023/07/01 11:37:04;;;;;;;3.15;1.83;;;;;;;30.95;37.57;100541.41;10373311;28;96889;-77
2023/07/01 11:42:09;;;;;;;2.20;1.67;;;;;;;31.20;37.55;100551.00;10373182;28;96727;-77
2023/07/01 11:47:14;;;;;;;;;;;;;;;31.30;37.20;100545.34;10395836;27;100284;-78
2023/07/01 11:52:24;;;;;;;2.88;1.85;;;;;;;31.65;37.37;100533.66;10414841;27;98095;-78
2023/07/01 11:57:33;;;;;;;2.55;1.63;;;;;;;31.67;36.54;100533.50;10408963;27;98054;-77
2023/07/01 12:02:37;;;;;;;2.30;1.73;;;;;;;31.95;35.13;100526.34;10408391;27;96819;-78
2023/07/01 12:07:55;;;;;;;2.38;1.60;;;;;;;31.98;34.90;100513.19;10404408;27;100203;-77
2023/07/01 12:12:58;;;;;;;2.53;1.67;;;;;;;32.17;33.95;100507.13;10409448;27;96909;-78
2023/07/01 12:18:26;;;;;;;3.63;1.90;;;;;;;32.39;35.89;100505.28;10399550;27;97060;-80
2023/07/01 12:23:29;;;;;;;2.85;1.73;;;;;;;32.78;34.66;100491.16;10399443;27;97702;-78
2023/07/01 12:28:33;;;;;;;3.00;1.70;;;;;;;32.82;34.44;100492.47;10376818;28;96939;-79
2023/07/01 12:33:38;;;;;;;2.90;1.55;;;;;;;32.62;34.56;100486.00;10377155;28;97696;-81
2023/07/01 12:38:42;;;;;;;2.47;1.88;;;;;;;32.66;35.38;100477.22;10376321;28;98602;-80
2023/07/01 12:43:48;;;;;;;2.92;1.70;;;;;;;32.96;35.98;100470.59;10367901;28;97861;-80
2023/07/01 12:48:52;;;;;;;2.50;1.60;;;;;;;32.90;34.59;100465.91;10375276;28;98763;-82
2023/07/01 12:53:56;;;;;;;3.30;1.70;;;;;;;32.78;35.04;100458.44;10372328;28;96886;-77
2023/07/01 12:59:17;;;;;;;2.72;1.58;;;;;;;32.59;34.67;100454.53;10375801;28;98780;-79
2023/07/01 13:04:22;;;;;;;2.88;1.52;;;;;;;32.78;35.11;100447.53;10367159;28;98532;-79
2023/07/01 13:09:39;;;;;;;3.13;1.80;;;;;;;32.76;34.63;100436.03;10368387;28;98360;-80
2023/07/01 13:14:42;;;;;;;2.28;1.60;;;;;;;32.99;34.95;100432.00;10369963;28;98609;-79
2023/07/01 13:19:47;;;;;;;2.78;1.90;;;;;;;32.87;34.23;100424.53;10375906;28;97357;-78
2023/07/01 13:24:50;;;;;;;2.60;1.77;;;;;;;32.90;34.65;100408.66;10383115;28;99136;-78
2023/07/01 13:29:53;;;;;;;2.65;1.80;;;;;;;33.04;34.92;100418.59;10371962;28;97828;-79
2023/07/01 13:35:00;;;;;;;2.88;1.80;;;;;;;33.05;34.26;100405.81;10366992;28;98937;-88
2023/07/01 13:40:06;;;;;;;2.25;1.55;;;;;;;33.47;33.60;100402.88;10374006;28;98602;-88
2023/07/01 13:45:23;;;;;;;2.67;1.80;;;;;;;33.38;34.44;100399.47;10379019;28;99177;-81
2023/07/01 13:50:28;;;;;;;2.38;1.63;;;;;;;33.66;33.86;100395.81;10369892;28;97012;-87
2023/07/01 13:55:31;;;;;;;2.00;1.38;;;;;;;34.03;33.71;100392.56;10365412;28;98822;-87
2023/07/01 14:00:40;;;;;;;2.40;1.55;;;;;;;34.10;32.82;100377.03;10355705;28;97123;-87
2023/07/01 14:05:45;;;;;;;2.03;1.35;;;;;;;34.32;32.05;100375.75;10374424;28;97294;-86
2023/07/01 14:10:49;;;;;;;2.03;1.50;;;;;;;34.54;32.41;100377.28;10377278;28;97143;-87
2023/07/01 14:15:53;;;;;;;2.35;1.45;;;;;;;34.82;31.92;100374.28;10376048;28;97721;-85
2023/07/01 14:21:01;;;;;;;2.22;1.25;;;;;;;34.69;31.38;100366.09;10369219;28;99486;-85
2023/07/01 14:26:07;;;;;;;2.20;1.48;;;;;;;34.66;32.29;100363.78;10363603;28;96940;-86
2023/07/01 14:31:11;;;;;;;2.78;1.60;;;;;;;34.83;32.26;100354.06;10367014;28;98910;-81
2023/07/01 14:36:21;;;;;;;2.70;1.45;;;;;;;34.50;31.58;100357.72;10370712;28;97215;-86
2023/07/01 14:41:27;;;;;;;2.60;1.45;;;;;;;34.88;31.76;100352.38;10403201;28;97237;-82
2023/07/01 14:46:31;;;;;;;1.98;1.50;;;;;;;35.03;31.25;100346.66;10367640;28;98646;-81
2023/07/01 14:51:36;;;;;;;2.42;1.40;;;;;;;35.17;31.08;100349.13;10365410;28;98853;-81
2023/07/01 14:56:40;;;;;;;2.00;1.50;;;;;;;35.20;31.32;100331.47;10355334;28;98593;-79
2023/07/01 15:01:43;;;;;;;1.77;1.33;;;;;;;34.58;30.75;100330.16;10363346;28;97172;-80
2023/07/01 15:06:48;;;;;;;2.40;1.70;;;;;;;34.32;31.67;100319.22;10364813;28;96817;-80
2023/07/01 15:11:51;;;;;;;4.80;1.83;;;;;;;34.51;31.50;100312.06;10351462;28;98671;-81
2023/07/01 15:16:55;;;;;;;2.25;1.42;;;;;;;34.50;31.68;100308.50;10366987;28;97371;-83
2023/07/01 15:22:00;;;;;;;1.85;1.25;;;;;;;34.74;31.13;100309.72;10374396;28;98427;-82
2023/07/01 15:27:04;;;;;;;2.35;1.50;;;;;;;34.47;31.19;100303.44;10364514;28;97464;-80
2023/07/01 15:32:09;;;;;;;2.20;1.42;;;;;;;34.79;30.15;100293.50;10377551;28;97902;-79
2023/07/01 15:37:13;;;;;;;2.75;1.70;;;;;;;35.03;30.35;100294.69;10374157;28;97557;-79
2023/07/01 15:42:17;;;;;;;2.33;1.60;;;;;;;34.78;31.17;100283.63;10371333;28;96839;-79
2023/07/01 15:47:20;;;;;;;3.03;1.50;;;;;;;34.49;31.42;100281.41;10372921;28;98983;-79
2023/07/01 15:52:25;;;;;;;1.80;1.27;;;;;;;34.82;31.71;100282.09;10360870;28;97639;-77
2023/07/01 15:57:28;;;;;;;2.55;1.33;;;;;;;35.01;31.15;100283.97;10373156;27;98462;-77
2023/07/01 16:02:32;;;;;;;1.88;1.20;;;;;;;35.07;31.17;100280.38;10369395;28;96964;-77
2023/07/01 16:08:01;;;;;;;1.92;1.25;;;;;;;34.94;30.94;100269.47;10371867;28;99975;-77
2023/07/01 16:13:05;;;;;;;2.00;1.55;;;;;;;34.80;31.51;100275.19;10364631;28;97690;-80
2023/07/01 16:18:36;;;;;;;1.80;1.15;;;;;;;34.67;31.63;100273.34;10362720;28;98717;-77
2023/07/01 16:23:47;;;;;;;1.55;1.17;;;;;;;34.41;31.05;100263.28;10361153;28;99009;-78
2023/07/01 16:28:51;;;;;;;1.33;1.10;;;;;;;34.31;31.46;100253.84;10351891;28;98343;-79
2023/07/01 16:33:55;;;;;;;1.73;1.30;;;;;;;34.18;31.70;100254.72;10365063;28;97047;-81
2023/07/01 16:39:09;;;;;;;2.33;1.40;;;;;;;34.25;31.28;100250.06;10374239;28;96872;-81
2023/07/01 16:44:13;;;;;;;2.03;1.33;;;;;;;34.21;32.54;100245.25;10368571;28;97394;-81
2023/07/01 16:49:17;;;;;;;1.58;1.10;;;;;;;34.09;33.18;100236.03;10368046;28;98766;-84
2023/07/01 16:54:33;;;;;;;2.22;1.55;;;;;;;33.89;35.32;100246.09;10372736;28;99016;-79
2023/07/01 16:59:45;;;;;;;1.85;1.30;;;;;;;33.95;35.63;100237.09;10370563;28;96844;-84
2023/07/01 17:04:49;;;;;;;2.37;1.37;;;;;;;33.79;36.34;100237.47;10367891;28;98415;-87
2023/07/01 17:09:53;;;;;;;2.42;1.63;;;;;;;33.48;37.32;100241.69;10374349;28;97306;-83
2023/07/01 17:14:57;;;;;;;6.40;5.80;;;;;;;33.78;37.63;100249.47;10363020;28;98682;-82
2023/07/01 17:20:03;;;;;;;107.60;89.25;;;;;;;34.17;37.22;100246.72;10373921;28;96864;-80
2023/07/01 17:25:09;;;;;;;489.58;424.40;;;;;;;34.02;37.87;100249.69;10381320;28;97650;-81
2023/07/01 17:30:13;;;;;;;19.25;17.35;;;;;;;34.06;37.73;100250.09;10367519;28;96907;-80
2023/07/01 17:35:18;;;;;;;10.90;7.65;;;;;;;34.30;37.58;100247.53;10371466;28;98565;-82
2023/07/01 17:40:24;;;;;;;5.25;3.08;;;;;;;34.28;37.75;100249.63;10368984;28;99167;-84
2023/07/01 17:45:27;;;;;;;2.22;1.80;;;;;;;33.98;38.40;100255.78;10368058;28;99999;-81
2023/07/01 17:50:30;;;;;;;25.35;19.73;;;;;;;33.87;38.16;100250.91;10361883;28;97067;-79
2023/07/01 17:55:36;;;;;;;223.50;198.85;;;;;;;33.92;38.81;100252.00;10361774;28;97931;-79
2023/07/01 18:00:39;;;;;;;17.35;15.13;;;;;;;33.87;38.81;100251.75;10358416;28;98807;-81
2023/07/01 18:05:43;;;;;;;113.97;83.75;;;;;;;33.76;38.59;100260.59;10367361;28;98926;-78
2023/07/01 18:10:48;;;;;;;555.88;441.05;;;;;;;33.66;39.37;100254.69;10368790;28;98548;-79
2023/07/01 18:15:51;;;;;;;382.20;304.77;;;;;;;33.55;39.34;100263.53;10364596;28;98954;-78
2023/07/01 18:20:55;;;;;;;306.55;237.95;;;;;;;33.61;39.87;100254.47;10365098;28;97082;-79
2023/07/01 18:26:02;;;;;;;554.70;453.10;;;;;;;33.41;39.72;100253.63;10371696;28;98598;-78
2023/07/01 18:31:06;;;;;;;106.10;83.30;;;;;;;33.23;40.46;100254.19;10376872;28;98669;-79
2023/07/01 18:36:10;;;;;;;17.15;15.45;;;;;;;33.19;40.43;100254.81;10368536;28;97119;-78
2023/07/01 18:41:16;;;;;;;9.50;7.55;;;;;;;33.03;41.34;100260.63;10358096;28;97667;-79
2023/07/01 18:46:20;;;;;;;4.85;4.35;;;;;;;32.80;41.40;100258.19;10371329;28;98054;-78
2023/07/01 18:51:24;;;;;;;8.82;6.63;;;;;;;32.65;42.09;100257.50;10369577;28;97062;-79
2023/07/01 18:56:29;;;;;;;4.10;2.80;;;;;;;32.52;41.91;100265.59;10374330;28;99317;-79
2023/07/01 19:01:34;;;;;;;20.33;14.75;;;;;;;32.47;42.77;100273.53;10369842;28;97649;-77
2023/07/01 19:06:38;;;;;;;3.47;2.65;;;;;;;32.23;43.39;100266.66;10369862;28;96773;-78
2023/07/01 19:11:43;;;;;;;3.72;2.40;;;;;;;32.12;43.54;100269.94;10374143;28;98580;-78
2023/07/01 19:16:47;;;;;;;3.90;2.55;;;;;;;32.08;43.48;100273.25;10369660;28;96994;-77
2023/07/01 19:21:50;;;;;;;3.22;2.35;;;;;;;31.92;44.00;100279.84;10370435;28;98934;-78
2023/07/01 19:26:56;;;;;;;3.65;1.83;;;;;;;31.86;44.94;100279.78;10368915;28;97060;-77
2023/07/01 19:32:00;;;;;;;3.60;2.03;;;;;;;31.69;45.17;100287.34;10378192;28;97577;-77
2023/07/01 19:37:04;;;;;;;3.38;2.22;;;;;;;31.58;46.10;100289.75;10371915;28;98488;-77
2023/07/01 19:42:10;;;;;;;2.97;1.98;;;;;;;31.40;47.09;100294.78;10371138;28;97010;-78
2023/07/01 19:47:13;;;;;;;2.70;1.92;;;;;;;31.29;47.19;100307.00;10367411;28;98704;-79
2023/07/01 19:52:16;;;;;;;3.10;2.10;;;;;;;31.14;48.13;100304.31;10356741;28;99215;-79
2023/07/01 19:57:21;;;;;;;3.15;2.00;;;;;;;30.90;48.53;100310.06;10358386;28;97734;-78
2023/07/01 20:02:24;;;;;;;2.85;1.83;;;;;;;30.68;49.77;100305.56;10372500;28;97984;-81
2023/07/01 20:07:29;;;;;;;;;;;;;;;30.55;50.01;100324.38;10374074;28;97039;-86
2023/07/01 20:12:35;;;;;;;3.78;2.50;;;;;;;30.42;50.12;100320.63;10369945;28;97675;-78
2023/07/01 20:17:38;;;;;;;3.35;2.13;;;;;;;30.20;50.69;100319.66;10374118;28;97630;-76
2023/07/01 20:22:42;;;;;;;4.20;2.22;;;;;;;30.04;51.15;100320.63;10379871;28;97305;-80
2023/07/01 20:27:46;;;;;;;4.22;2.22;;;;;;;29.88;51.82;100328.88;10365636;28;98697;-78
2023/07/01 20:32:50;;;;;;;3.97;2.50;;;;;;;29.74;52.16;100332.44;10380274;28;97809;-78
2023/07/01 20:37:53;;;;;;;;;;;;;;;29.58;53.25;100346.09;10372620;28;97507;-82
2023/07/01 20:42:58;;;;;;;4.63;2.17;;;;;;;29.40;53.00;100341.97;10383181;28;97239;-78
2023/07/01 20:48:01;;;;;;;4.47;2.42;;;;;;;29.29;53.38;100350.47;10372218;28;96834;-77
2023/07/01 20:53:04;;;;;;;4.88;2.22;;;;;;;29.33;53.10;100360.78;10362989;28;97730;-78
2023/07/01 20:58:10;;;;;;;4.22;2.72;;;;;;;29.06;54.26;100367.53;10368891;28;96768;-78
2023/07/01 21:03:13;;;;;;;4.93;2.60;;;;;;;29.00;54.30;100370.13;10342769;28;98575;-78
2023/07/01 21:08:17;;;;;;;6.28;2.60;;;;;;;28.95;54.30;100375.19;10384247;28;96874;-78
2023/07/01 21:13:21;;;;;;;5.35;2.13;;;;;;;28.85;54.65;100372.66;10362121;28;97603;-78
2023/07/01 21:18:25;;;;;;;2.38;1.88;;;;;;;28.69;54.95;100380.00;10364023;28;99141;-78
2023/07/01 21:23:28;;;;;;;4.43;2.25;;;;;;;28.68;55.33;100379.16;10378142;28;97470;-78
2023/07/01 21:28:37;;;;;;;4.07;2.42;;;;;;;28.58;55.50;100393.91;10366442;28;96767;-78
2023/07/01 21:33:41;;;;;;;4.20;2.30;;;;;;;28.43;55.92;100388.31;10376321;28;98599;-78
2023/07/01 21:38:44;;;;;;;3.92;2.15;;;;;;;28.62;55.06;100387.94;10375724;27;97776;-78
2023/07/01 21:43:49;;;;;;;2.92;1.98;;;;;;;28.59;55.45;100395.56;10362239;28;97380;-78
2023/07/01 21:48:59;;;;;;;4.70;2.30;;;;;;;28.39;56.09;100394.25;10367679;28;98678;-77
2023/07/01 21:54:03;;;;;;;3.47;2.20;;;;;;;28.20;56.17;100398.16;10365229;28;96896;-78
2023/07/01 21:59:08;;;;;;;4.50;2.05;;;;;;;28.21;56.69;100394.41;10366281;28;96837;-78
2023/07/01 22:04:13;;;;;;;3.55;2.30;;;;;;;28.08;56.85;100397.63;10373162;28;96829;-78
2023/07/01 22:09:17;;;;;;;5.13;2.20;;;;;;;28.11;56.98;100396.44;10361112;28;98644;-78
2023/07/01 22:14:22;;;;;;;4.30;2.58;;;;;;;28.08;56.89;100415.72;10389324;28;97383;-77
2023/07/01 22:19:26;;;;;;;5.30;2.15;;;;;;;28.12;56.45;100413.53;10372094;28;97921;-77
2023/07/01 22:24:30;;;;;;;3.83;1.92;;;;;;;27.85;57.27;100409.28;10353351;28;97330;-77
2023/07/01 22:29:35;;;;;;;3.75;2.30;;;;;;;27.96;57.09;100404.38;10380182;28;97442;-77
2023/07/01 22:34:39;;;;;;;6.25;1.92;;;;;;;27.74;57.80;100415.84;10352247;28;96730;-77
2023/07/01 22:39:42;;;;;;;3.65;2.28;;;;;;;27.52;58.37;100412.88;10374770;28;96858;-77
2023/07/01 22:44:47;;;;;;;2.97;1.88;;;;;;;27.72;57.64;100417.88;10359043;28;97859;-78
2023/07/01 22:49:50;;;;;;;3.03;2.03;;;;;;;27.58;58.46;100413.06;10367499;28;96628;-78
2023/07/01 22:54:54;;;;;;;3.92;2.47;;;;;;;27.58;58.46;100412.25;10366276;22;97532;-77
2023/07/01 22:59:59;;;;;;;3.63;2.35;;;;;;;27.52;58.28;100402.06;10337689;28;96725;-77
2023/07/01 23:05:02;;;;;;;3.05;2.17;;;;;;;27.44;58.99;100410.16;10333749;28;96876;-77
2023/07/01 23:10:08;;;;;;;5.38;2.47;;;;;;;27.11;59.69;100411.91;10325700;28;96991;-76
2023/07/01 23:15:12;;;;;;;3.38;2.00;;;;;;;27.07;59.89;100409.66;10333205;28;97292;-77
2023/07/01 23:20:16;;;;;;;2.90;2.40;;;;;;;27.33;59.27;100405.91;10333800;28;96744;-77
2023/07/01 23:25:19;;;;;;;;;;;;;;;27.23;59.87;100397.09;10318349;28;96928;-77
2023/07/01 23:30:24;;;;;;;3.92;2.00;;;;;;;27.13;59.53;100403.63;10319461;28;98505;-76
2023/07/01 23:35:27;;;;;;;4.88;2.20;;;;;;;27.06;59.51;100392.59;10335884;28;96825;-76
2023/07/01 23:40:31;;;;;;;2.95;2.03;;;;;;;27.18;59.40;100395.88;10313858;28;96628;-76
2023/07/01 23:45:36;;;;;;;3.13;2.20;;;;;;;26.93;59.77;100393.03;10331045;28;98759;-76
2023/07/01 23:50:40;;;;;;;3.80;2.20;;;;;;;26.88;60.46;100381.88;10330977;28;98782;-77
2023/07/01 23:55:44;;;;;;;3.90;2.50;;;;;;;27.10;59.88;100387.72;10327010;28;97315;-76
